sensor_id;sensor_type;location;lat;lon;timestamp;temperature;humidity
7218;DHT22;3650;53.580;10.094;2024-02-26T00:00:41;7.50;97.90
7218;DHT22;3650;53.580;10.094;2024-02-26T00:03:10;7.50;97.80
7218;DHT22;3650;53.580;10.094;2024-02-26T00:05:37;7.50;97.90
7218;DHT22;3650;53.580;10.094;2024-02-26T00:08:05;7.50;97.90
7218;DHT22;3650;53.580;10.094;2024-02-26T00:10:32;7.40;97.60
7218;DHT22;3650;53.580;10.094;2024-02-26T00:12:59;7.40;97.60
7218;DHT22;3650;53.580;10.094;2024-02-26T00:15:26;7.40;97.40
7218;DHT22;3650;53.580;10.094;2024-02-26T00:17:53;7.30;97.70
7218;DHT22;3650;53.580;10.094;2024-02-26T00:20:21;7.30;97.30
7218;DHT22;3650;53.580;10.094;2024-02-26T00:22:48;7.30;97.00
7218;DHT22;3650;53.580;10.094;2024-02-26T00:25:15;7.30;96.90
7218;DHT22;3650;53.580;10.094;2024-02-26T00:27:42;7.20;96.90
7218;DHT22;3650;53.580;10.094;2024-02-26T00:30:10;7.20;96.80
7218;DHT22;3650;53.580;10.094;2024-02-26T00:32:37;7.10;96.50
7218;DHT22;3650;53.580;10.094;2024-02-26T00:35:05;7.10;96.50
7218;DHT22;3650;53.580;10.094;2024-02-26T00:37:33;7.10;97.00
7218;DHT22;3650;53.580;10.094;2024-02-26T00:40:00;7.10;96.80
7218;DHT22;3650;53.580;10.094;2024-02-26T00:42:27;7.10;96.60
7218;DHT22;3650;53.580;10.094;2024-02-26T00:44:54;7.10;96.40
7218;DHT22;3650;53.580;10.094;2024-02-26T00:47:21;7.10;96.60
7218;DHT22;3650;53.580;10.094;2024-02-26T00:49:48;7.00;96.40
7218;DHT22;3650;53.580;10.094;2024-02-26T00:52:14;7.00;96.10
7218;DHT22;3650;53.580;10.094;2024-02-26T00:54:42;7.00;96.00
7218;DHT22;3650;53.580;10.094;2024-02-26T00:57:09;6.90;95.70
7218;DHT22;3650;53.580;10.094;2024-02-26T00:59:37;6.80;96.00
7218;DHT22;3650;53.580;10.094;2024-02-26T01:02:04;6.80;96.30
7218;DHT22;3650;53.580;10.094;2024-02-26T01:04:32;6.80;96.50
7218;DHT22;3650;53.580;10.094;2024-02-26T01:06:59;6.80;96.10
7218;DHT22;3650;53.580;10.094;2024-02-26T01:09:26;6.80;95.90
7218;DHT22;3650;53.580;10.094;2024-02-26T01:11:54;6.80;96.00
7218;DHT22;3650;53.580;10.094;2024-02-26T01:14:21;6.70;96.00
7218;DHT22;3650;53.580;10.094;2024-02-26T01:16:47;6.70;96.00
7218;DHT22;3650;53.580;10.094;2024-02-26T01:19:14;6.60;96.00
7218;DHT22;3650;53.580;10.094;2024-02-26T01:21:41;6.60;96.00
7218;DHT22;3650;53.580;10.094;2024-02-26T01:24:08;6.50;96.50
7218;DHT22;3650;53.580;10.094;2024-02-26T01:26:35;6.50;95.80
7218;DHT22;3650;53.580;10.094;2024-02-26T01:29:03;6.40;95.80
7218;DHT22;3650;53.580;10.094;2024-02-26T01:31:29;6.50;95.90
7218;DHT22;3650;53.580;10.094;2024-02-26T01:33:56;6.50;96.40
7218;DHT22;3650;53.580;10.094;2024-02-26T01:36:23;6.40;95.80
7218;DHT22;3650;53.580;10.094;2024-02-26T01:38:51;6.40;95.80
7218;DHT22;3650;53.580;10.094;2024-02-26T01:41:17;6.30;95.60
7218;DHT22;3650;53.580;10.094;2024-02-26T01:43:44;6.30;95.80
7218;DHT22;3650;53.580;10.094;2024-02-26T01:46:14;6.30;95.90
7218;DHT22;3650;53.580;10.094;2024-02-26T01:48:41;6.30;96.00
7218;DHT22;3650;53.580;10.094;2024-02-26T01:51:08;6.30;95.80
7218;DHT22;3650;53.580;10.094;2024-02-26T01:53:36;6.20;95.70
7218;DHT22;3650;53.580;10.094;2024-02-26T01:56:04;6.20;95.70
7218;DHT22;3650;53.580;10.094;2024-02-26T01:58:31;6.20;95.60
7218;DHT22;3650;53.580;10.094;2024-02-26T02:00:59;6.20;95.70
7218;DHT22;3650;53.580;10.094;2024-02-26T02:03:27;6.30;95.80
7218;DHT22;3650;53.580;10.094;2024-02-26T02:05:55;6.30;95.80
7218;DHT22;3650;53.580;10.094;2024-02-26T02:08:22;6.20;95.60
7218;DHT22;3650;53.580;10.094;2024-02-26T02:10:50;6.20;95.40
7218;DHT22;3650;53.580;10.094;2024-02-26T02:13:17;6.20;95.50
7218;DHT22;3650;53.580;10.094;2024-02-26T02:15:43;6.20;95.60
7218;DHT22;3650;53.580;10.094;2024-02-26T02:18:10;6.20;95.70
7218;DHT22;3650;53.580;10.094;2024-02-26T02:20:38;6.20;95.60
7218;DHT22;3650;53.580;10.094;2024-02-26T02:23:05;6.20;95.50
7218;DHT22;3650;53.580;10.094;2024-02-26T02:25:32;6.20;95.40
7218;DHT22;3650;53.580;10.094;2024-02-26T02:27:59;6.20;95.20
7218;DHT22;3650;53.580;10.094;2024-02-26T02:30:28;6.20;95.40
7218;DHT22;3650;53.580;10.094;2024-02-26T02:32:57;6.20;95.30
7218;DHT22;3650;53.580;10.094;2024-02-26T02:35:24;6.30;95.20
7218;DHT22;3650;53.580;10.094;2024-02-26T02:37:53;6.30;95.10
7218;DHT22;3650;53.580;10.094;2024-02-26T02:40:20;6.30;94.80
7218;DHT22;3650;53.580;10.094;2024-02-26T02:42:47;6.30;94.60
7218;DHT22;3650;53.580;10.094;2024-02-26T02:45:14;6.20;94.50
7218;DHT22;3650;53.580;10.094;2024-02-26T02:47:40;6.20;95.00
7218;DHT22;3650;53.580;10.094;2024-02-26T02:50:08;6.10;95.30
7218;DHT22;3650;53.580;10.094;2024-02-26T02:52:35;6.10;95.50
7218;DHT22;3650;53.580;10.094;2024-02-26T02:55:03;6.10;95.80
7218;DHT22;3650;53.580;10.094;2024-02-26T02:57:30;6.10;95.70
7218;DHT22;3650;53.580;10.094;2024-02-26T02:59:58;6.20;95.50
7218;DHT22;3650;53.580;10.094;2024-02-26T03:02:24;6.20;94.60
7218;DHT22;3650;53.580;10.094;2024-02-26T03:04:51;6.10;94.40
7218;DHT22;3650;53.580;10.094;2024-02-26T03:07:18;6.10;94.50
7218;DHT22;3650;53.580;10.094;2024-02-26T03:09:45;6.00;94.50
7218;DHT22;3650;53.580;10.094;2024-02-26T03:12:13;6.00;94.50
7218;DHT22;3650;53.580;10.094;2024-02-26T03:14:40;6.00;94.50
7218;DHT22;3650;53.580;10.094;2024-02-26T03:17:06;6.00;94.50
7218;DHT22;3650;53.580;10.094;2024-02-26T03:19:33;6.00;94.50
7218;DHT22;3650;53.580;10.094;2024-02-26T03:22:00;6.00;94.50
7218;DHT22;3650;53.580;10.094;2024-02-26T03:24:27;6.00;94.10
7218;DHT22;3650;53.580;10.094;2024-02-26T03:26:54;5.80;93.40
7218;DHT22;3650;53.580;10.094;2024-02-26T03:29:22;5.80;93.60
7218;DHT22;3650;53.580;10.094;2024-02-26T03:31:49;5.80;93.90
7218;DHT22;3650;53.580;10.094;2024-02-26T03:34:16;5.80;94.20
7218;DHT22;3650;53.580;10.094;2024-02-26T03:36:44;5.80;94.40
7218;DHT22;3650;53.580;10.094;2024-02-26T03:39:11;5.70;94.40
7218;DHT22;3650;53.580;10.094;2024-02-26T03:41:38;5.70;94.10
7218;DHT22;3650;53.580;10.094;2024-02-26T03:44:05;5.60;94.30
7218;DHT22;3650;53.580;10.094;2024-02-26T03:46:33;5.60;94.70
7218;DHT22;3650;53.580;10.094;2024-02-26T03:49:00;5.60;94.90
7218;DHT22;3650;53.580;10.094;2024-02-26T03:51:26;5.60;94.90
7218;DHT22;3650;53.580;10.094;2024-02-26T03:53:56;5.60;94.90
7218;DHT22;3650;53.580;10.094;2024-02-26T03:56:23;5.60;94.90
7218;DHT22;3650;53.580;10.094;2024-02-26T03:58:50;5.60;95.00
7218;DHT22;3650;53.580;10.094;2024-02-26T04:01:17;5.60;94.90
7218;DHT22;3650;53.580;10.094;2024-02-26T04:03:45;5.70;94.60
7218;DHT22;3650;53.580;10.094;2024-02-26T04:06:12;5.60;94.40
7218;DHT22;3650;53.580;10.094;2024-02-26T04:08:39;5.60;94.40
7218;DHT22;3650;53.580;10.094;2024-02-26T04:11:06;5.50;94.40
7218;DHT22;3650;53.580;10.094;2024-02-26T04:13:33;5.50;94.60
7218;DHT22;3650;53.580;10.094;2024-02-26T04:16:00;5.40;94.80
7218;DHT22;3650;53.580;10.094;2024-02-26T04:18:28;5.40;94.40
7218;DHT22;3650;53.580;10.094;2024-02-26T04:20:56;5.40;94.60
7218;DHT22;3650;53.580;10.094;2024-02-26T04:23:23;5.40;94.90
7218;DHT22;3650;53.580;10.094;2024-02-26T04:25:50;5.40;94.80
7218;DHT22;3650;53.580;10.094;2024-02-26T04:28:18;5.50;94.40
7218;DHT22;3650;53.580;10.094;2024-02-26T04:30:46;5.40;94.30
7218;DHT22;3650;53.580;10.094;2024-02-26T04:33:13;5.40;94.30
7218;DHT22;3650;53.580;10.094;2024-02-26T04:35:40;5.40;94.50
7218;DHT22;3650;53.580;10.094;2024-02-26T04:38:08;5.40;94.60
7218;DHT22;3650;53.580;10.094;2024-02-26T04:40:35;5.40;94.50
7218;DHT22;3650;53.580;10.094;2024-02-26T04:43:01;5.30;94.50
7218;DHT22;3650;53.580;10.094;2024-02-26T04:45:28;5.30;94.70
7218;DHT22;3650;53.580;10.094;2024-02-26T04:47:55;5.30;94.90
7218;DHT22;3650;53.580;10.094;2024-02-26T04:50:22;5.30;94.90
7218;DHT22;3650;53.580;10.094;2024-02-26T04:52:49;5.20;94.90
7218;DHT22;3650;53.580;10.094;2024-02-26T04:55:17;5.20;95.00
7218;DHT22;3650;53.580;10.094;2024-02-26T04:57:44;5.30;95.10
7218;DHT22;3650;53.580;10.094;2024-02-26T05:00:12;5.30;95.10
7218;DHT22;3650;53.580;10.094;2024-02-26T05:02:39;5.30;95.10
7218;DHT22;3650;53.580;10.094;2024-02-26T05:05:06;5.30;95.10
7218;DHT22;3650;53.580;10.094;2024-02-26T05:07:34;5.30;95.10
7218;DHT22;3650;53.580;10.094;2024-02-26T05:10:00;5.30;95.10
7218;DHT22;3650;53.580;10.094;2024-02-26T05:12:29;5.30;95.10
7218;DHT22;3650;53.580;10.094;2024-02-26T05:14:56;5.30;95.20
7218;DHT22;3650;53.580;10.094;2024-02-26T05:17:22;5.30;95.10
7218;DHT22;3650;53.580;10.094;2024-02-26T05:19:49;5.30;95.00
7218;DHT22;3650;53.580;10.094;2024-02-26T05:22:16;5.30;94.90
7218;DHT22;3650;53.580;10.094;2024-02-26T05:24:43;5.30;95.10
7218;DHT22;3650;53.580;10.094;2024-02-26T05:27:09;5.20;94.90
7218;DHT22;3650;53.580;10.094;2024-02-26T05:29:38;5.20;95.00
7218;DHT22;3650;53.580;10.094;2024-02-26T05:32:06;5.20;94.90
7218;DHT22;3650;53.580;10.094;2024-02-26T05:34:33;5.20;95.00
7218;DHT22;3650;53.580;10.094;2024-02-26T05:36:59;5.20;95.00
7218;DHT22;3650;53.580;10.094;2024-02-26T05:39:26;5.10;94.80
7218;DHT22;3650;53.580;10.094;2024-02-26T05:41:53;5.10;94.90
7218;DHT22;3650;53.580;10.094;2024-02-26T05:44:22;5.10;94.90
7218;DHT22;3650;53.580;10.094;2024-02-26T05:46:50;5.20;95.10
7218;DHT22;3650;53.580;10.094;2024-02-26T05:49:17;5.20;95.10
7218;DHT22;3650;53.580;10.094;2024-02-26T05:51:44;5.20;95.00
7218;DHT22;3650;53.580;10.094;2024-02-26T05:54:11;5.30;95.10
7218;DHT22;3650;53.580;10.094;2024-02-26T05:56:38;5.30;95.00
7218;DHT22;3650;53.580;10.094;2024-02-26T05:59:04;5.20;95.00
7218;DHT22;3650;53.580;10.094;2024-02-26T06:01:31;5.30;95.10
7218;DHT22;3650;53.580;10.094;2024-02-26T06:04:00;5.30;95.00
7218;DHT22;3650;53.580;10.094;2024-02-26T06:06:27;5.30;94.90
7218;DHT22;3650;53.580;10.094;2024-02-26T06:08:53;5.20;94.80
7218;DHT22;3650;53.580;10.094;2024-02-26T06:11:20;5.20;95.50
7218;DHT22;3650;53.580;10.094;2024-02-26T06:13:48;5.20;95.60
7218;DHT22;3650;53.580;10.094;2024-02-26T06:16:15;5.20;95.60
7218;DHT22;3650;53.580;10.094;2024-02-26T06:18:42;5.20;95.60
7218;DHT22;3650;53.580;10.094;2024-02-26T06:21:11;5.20;95.60
7218;DHT22;3650;53.580;10.094;2024-02-26T06:23:38;5.10;95.60
7218;DHT22;3650;53.580;10.094;2024-02-26T06:26:04;5.10;95.80
7218;DHT22;3650;53.580;10.094;2024-02-26T06:28:31;5.10;95.90
7218;DHT22;3650;53.580;10.094;2024-02-26T06:30:59;5.10;96.10
7218;DHT22;3650;53.580;10.094;2024-02-26T06:33:26;5.10;96.60
7218;DHT22;3650;53.580;10.094;2024-02-26T06:35:53;5.10;96.30
7218;DHT22;3650;53.580;10.094;2024-02-26T06:38:21;5.00;96.50
7218;DHT22;3650;53.580;10.094;2024-02-26T06:40:48;5.00;96.60
7218;DHT22;3650;53.580;10.094;2024-02-26T06:43:15;5.00;96.90
7218;DHT22;3650;53.580;10.094;2024-02-26T06:45:41;5.00;97.10
7218;DHT22;3650;53.580;10.094;2024-02-26T06:48:08;5.00;97.20
7218;DHT22;3650;53.580;10.094;2024-02-26T06:50:36;5.10;97.60
7218;DHT22;3650;53.580;10.094;2024-02-26T06:53:03;5.10;97.60
7218;DHT22;3650;53.580;10.094;2024-02-26T06:55:33;5.00;97.60
7218;DHT22;3650;53.580;10.094;2024-02-26T06:58:00;5.10;97.60
7218;DHT22;3650;53.580;10.094;2024-02-26T07:00:27;5.10;97.60
7218;DHT22;3650;53.580;10.094;2024-02-26T07:02:54;5.00;97.60
7218;DHT22;3650;53.580;10.094;2024-02-26T07:05:21;5.00;97.60
7218;DHT22;3650;53.580;10.094;2024-02-26T07:07:47;5.10;97.60
7218;DHT22;3650;53.580;10.094;2024-02-26T07:10:14;5.00;97.70
7218;DHT22;3650;53.580;10.094;2024-02-26T07:12:42;5.00;97.80
7218;DHT22;3650;53.580;10.094;2024-02-26T07:15:10;4.90;98.00
7218;DHT22;3650;53.580;10.094;2024-02-26T07:17:36;5.00;98.00
7218;DHT22;3650;53.580;10.094;2024-02-26T07:20:08;4.90;98.20
7218;DHT22;3650;53.580;10.094;2024-02-26T07:22:35;4.90;98.30
7218;DHT22;3650;53.580;10.094;2024-02-26T07:25:01;4.90;98.20
7218;DHT22;3650;53.580;10.094;2024-02-26T07:27:29;4.90;98.30
7218;DHT22;3650;53.580;10.094;2024-02-26T07:29:57;4.90;98.40
7218;DHT22;3650;53.580;10.094;2024-02-26T07:32:24;4.90;98.50
7218;DHT22;3650;53.580;10.094;2024-02-26T07:34:51;4.90;98.50
7218;DHT22;3650;53.580;10.094;2024-02-26T07:37:17;4.90;98.70
7218;DHT22;3650;53.580;10.094;2024-02-26T07:39:44;4.90;98.80
7218;DHT22;3650;53.580;10.094;2024-02-26T07:42:11;4.90;99.00
7218;DHT22;3650;53.580;10.094;2024-02-26T07:44:38;5.00;99.10
7218;DHT22;3650;53.580;10.094;2024-02-26T07:47:09;5.00;99.00
7218;DHT22;3650;53.580;10.094;2024-02-26T07:49:36;4.90;99.00
7218;DHT22;3650;53.580;10.094;2024-02-26T07:52:03;5.00;99.10
7218;DHT22;3650;53.580;10.094;2024-02-26T07:54:30;5.00;99.30
7218;DHT22;3650;53.580;10.094;2024-02-26T07:56:57;5.00;99.50
7218;DHT22;3650;53.580;10.094;2024-02-26T07:59:24;5.00;99.60
7218;DHT22;3650;53.580;10.094;2024-02-26T08:01:51;5.10;99.70
7218;DHT22;3650;53.580;10.094;2024-02-26T08:04:19;5.10;99.80
7218;DHT22;3650;53.580;10.094;2024-02-26T08:06:46;5.10;99.90
7218;DHT22;3650;53.580;10.094;2024-02-26T08:09:12;5.10;99.90
7218;DHT22;3650;53.580;10.094;2024-02-26T08:11:39;5.10;99.90
7218;DHT22;3650;53.580;10.094;2024-02-26T08:14:06;5.20;99.90
7218;DHT22;3650;53.580;10.094;2024-02-26T08:16:33;5.20;99.90
7218;DHT22;3650;53.580;10.094;2024-02-26T08:19:00;5.20;99.90
7218;DHT22;3650;53.580;10.094;2024-02-26T08:21:28;5.20;99.90
7218;DHT22;3650;53.580;10.094;2024-02-26T08:23:55;5.30;99.90
7218;DHT22;3650;53.580;10.094;2024-02-26T08:26:22;5.30;99.90
7218;DHT22;3650;53.580;10.094;2024-02-26T08:28:49;5.40;99.90
7218;DHT22;3650;53.580;10.094;2024-02-26T08:31:17;5.40;99.90
7218;DHT22;3650;53.580;10.094;2024-02-26T08:33:43;5.50;99.90
7218;DHT22;3650;53.580;10.094;2024-02-26T08:36:11;5.50;99.90
7218;DHT22;3650;53.580;10.094;2024-02-26T08:38:39;5.50;99.90
7218;DHT22;3650;53.580;10.094;2024-02-26T08:41:06;5.60;99.90
7218;DHT22;3650;53.580;10.094;2024-02-26T08:43:33;5.70;99.90
7218;DHT22;3650;53.580;10.094;2024-02-26T08:46:00;5.80;99.90
7218;DHT22;3650;53.580;10.094;2024-02-26T08:48:26;5.80;99.90
7218;DHT22;3650;53.580;10.094;2024-02-26T08:50:53;5.80;99.90
7218;DHT22;3650;53.580;10.094;2024-02-26T08:53:20;5.90;99.90
7218;DHT22;3650;53.580;10.094;2024-02-26T08:55:48;5.90;99.90
7218;DHT22;3650;53.580;10.094;2024-02-26T08:58:16;5.90;99.90
7218;DHT22;3650;53.580;10.094;2024-02-26T09:00:43;6.00;99.90
7218;DHT22;3650;53.580;10.094;2024-02-26T09:03:10;6.00;99.90
7218;DHT22;3650;53.580;10.094;2024-02-26T09:05:37;6.10;99.90
7218;DHT22;3650;53.580;10.094;2024-02-26T09:08:05;6.10;99.90
7218;DHT22;3650;53.580;10.094;2024-02-26T09:10:32;6.10;99.90
7218;DHT22;3650;53.580;10.094;2024-02-26T09:13:00;6.20;99.90
7218;DHT22;3650;53.580;10.094;2024-02-26T09:15:27;6.30;99.90
7218;DHT22;3650;53.580;10.094;2024-02-26T09:17:54;6.30;99.90
7218;DHT22;3650;53.580;10.094;2024-02-26T09:20:21;6.30;99.90
7218;DHT22;3650;53.580;10.094;2024-02-26T09:22:49;6.40;99.90
7218;DHT22;3650;53.580;10.094;2024-02-26T09:25:16;6.50;99.90
7218;DHT22;3650;53.580;10.094;2024-02-26T09:27:44;6.50;99.90
7218;DHT22;3650;53.580;10.094;2024-02-26T09:30:13;6.50;99.90
7218;DHT22;3650;53.580;10.094;2024-02-26T09:32:40;6.60;99.90
7218;DHT22;3650;53.580;10.094;2024-02-26T09:35:07;6.60;99.90
7218;DHT22;3650;53.580;10.094;2024-02-26T09:37:34;6.70;99.90
7218;DHT22;3650;53.580;10.094;2024-02-26T09:40:03;6.70;99.90
7218;DHT22;3650;53.580;10.094;2024-02-26T09:42:31;6.70;99.90
7218;DHT22;3650;53.580;10.094;2024-02-26T09:45:00;6.80;99.90
7218;DHT22;3650;53.580;10.094;2024-02-26T09:47:31;6.80;99.90
7218;DHT22;3650;53.580;10.094;2024-02-26T09:49:59;6.80;99.90
7218;DHT22;3650;53.580;10.094;2024-02-26T09:52:28;6.90;99.90
7218;DHT22;3650;53.580;10.094;2024-02-26T09:54:57;6.90;99.90
7218;DHT22;3650;53.580;10.094;2024-02-26T09:57:24;6.90;99.90
7218;DHT22;3650;53.580;10.094;2024-02-26T09:59:53;6.90;99.90
7218;DHT22;3650;53.580;10.094;2024-02-26T10:02:21;7.00;99.90
7218;DHT22;3650;53.580;10.094;2024-02-26T10:04:49;7.00;99.90
7218;DHT22;3650;53.580;10.094;2024-02-26T10:07:17;7.00;99.90
7218;DHT22;3650;53.580;10.094;2024-02-26T10:09:45;7.00;99.90
7218;DHT22;3650;53.580;10.094;2024-02-26T10:12:12;7.00;99.90
7218;DHT22;3650;53.580;10.094;2024-02-26T10:14:41;7.10;99.90
7218;DHT22;3650;53.580;10.094;2024-02-26T10:17:07;7.00;99.90
7218;DHT22;3650;53.580;10.094;2024-02-26T10:19:35;7.10;99.90
7218;DHT22;3650;53.580;10.094;2024-02-26T10:22:03;7.10;99.90
7218;DHT22;3650;53.580;10.094;2024-02-26T10:24:31;7.10;99.90
7218;DHT22;3650;53.580;10.094;2024-02-26T10:26:58;7.10;99.90
7218;DHT22;3650;53.580;10.094;2024-02-26T10:29:25;7.20;99.90
7218;DHT22;3650;53.580;10.094;2024-02-26T10:31:53;7.20;99.90
7218;DHT22;3650;53.580;10.094;2024-02-26T10:34:20;7.20;99.90
7218;DHT22;3650;53.580;10.094;2024-02-26T10:36:47;7.20;99.90
7218;DHT22;3650;53.580;10.094;2024-02-26T10:39:15;7.20;99.90
7218;DHT22;3650;53.580;10.094;2024-02-26T10:41:43;7.30;99.90
7218;DHT22;3650;53.580;10.094;2024-02-26T10:44:11;7.30;99.90
7218;DHT22;3650;53.580;10.094;2024-02-26T10:46:39;7.30;99.90
7218;DHT22;3650;53.580;10.094;2024-02-26T10:49:13;7.30;99.90
7218;DHT22;3650;53.580;10.094;2024-02-26T10:51:42;7.30;99.90
7218;DHT22;3650;53.580;10.094;2024-02-26T10:54:12;7.30;99.90
7218;DHT22;3650;53.580;10.094;2024-02-26T10:56:42;7.40;99.90
7218;DHT22;3650;53.580;10.094;2024-02-26T10:59:10;7.40;99.90
7218;DHT22;3650;53.580;10.094;2024-02-26T11:01:37;7.40;99.90
7218;DHT22;3650;53.580;10.094;2024-02-26T11:04:05;7.40;99.90
7218;DHT22;3650;53.580;10.094;2024-02-26T11:06:32;7.40;99.90
7218;DHT22;3650;53.580;10.094;2024-02-26T11:09:01;7.40;99.90
7218;DHT22;3650;53.580;10.094;2024-02-26T11:11:29;7.50;99.90
7218;DHT22;3650;53.580;10.094;2024-02-26T11:13:59;7.50;99.90
7218;DHT22;3650;53.580;10.094;2024-02-26T11:16:28;7.50;99.90
7218;DHT22;3650;53.580;10.094;2024-02-26T11:18:55;7.50;99.90
7218;DHT22;3650;53.580;10.094;2024-02-26T11:21:24;7.60;99.90
7218;DHT22;3650;53.580;10.094;2024-02-26T11:23:56;7.60;99.90
7218;DHT22;3650;53.580;10.094;2024-02-26T11:26:24;7.60;99.90
7218;DHT22;3650;53.580;10.094;2024-02-26T11:28:52;7.60;99.90
7218;DHT22;3650;53.580;10.094;2024-02-26T11:31:24;7.60;99.80
7218;DHT22;3650;53.580;10.094;2024-02-26T11:33:53;7.60;99.80
7218;DHT22;3650;53.580;10.094;2024-02-26T11:36:20;7.60;99.50
7218;DHT22;3650;53.580;10.094;2024-02-26T11:38:47;7.60;99.50
7218;DHT22;3650;53.580;10.094;2024-02-26T11:41:17;7.70;99.60
7218;DHT22;3650;53.580;10.094;2024-02-26T11:43:51;7.70;99.80
7218;DHT22;3650;53.580;10.094;2024-02-26T11:46:29;7.70;99.70
7218;DHT22;3650;53.580;10.094;2024-02-26T11:48:59;7.70;99.80
7218;DHT22;3650;53.580;10.094;2024-02-26T11:51:27;7.70;99.80
7218;DHT22;3650;53.580;10.094;2024-02-26T11:53:54;7.70;99.60
7218;DHT22;3650;53.580;10.094;2024-02-26T11:56:24;7.80;99.80
7218;DHT22;3650;53.580;10.094;2024-02-26T11:59:00;7.80;99.80
7218;DHT22;3650;53.580;10.094;2024-02-26T12:01:39;7.80;99.90
7218;DHT22;3650;53.580;10.094;2024-02-26T12:04:07;7.90;99.90
7218;DHT22;3650;53.580;10.094;2024-02-26T12:06:50;7.90;99.90
7218;DHT22;3650;53.580;10.094;2024-02-26T12:09:32;7.90;99.90
7218;DHT22;3650;53.580;10.094;2024-02-26T12:12:00;7.90;99.90
7218;DHT22;3650;53.580;10.094;2024-02-26T12:14:27;7.90;99.90
7218;DHT22;3650;53.580;10.094;2024-02-26T12:16:56;8.00;99.90
7218;DHT22;3650;53.580;10.094;2024-02-26T12:19:23;8.00;99.90
7218;DHT22;3650;53.580;10.094;2024-02-26T12:21:51;8.00;99.90
7218;DHT22;3650;53.580;10.094;2024-02-26T12:24:19;8.10;99.90
7218;DHT22;3650;53.580;10.094;2024-02-26T12:26:46;8.10;99.90
7218;DHT22;3650;53.580;10.094;2024-02-26T12:29:13;8.10;99.90
7218;DHT22;3650;53.580;10.094;2024-02-26T12:31:41;8.10;99.40
7218;DHT22;3650;53.580;10.094;2024-02-26T12:34:09;8.20;99.40
7218;DHT22;3650;53.580;10.094;2024-02-26T12:36:36;8.20;99.60
7218;DHT22;3650;53.580;10.094;2024-02-26T12:39:04;8.30;99.80
7218;DHT22;3650;53.580;10.094;2024-02-26T12:41:32;8.30;99.70
7218;DHT22;3650;53.580;10.094;2024-02-26T12:43:59;8.30;99.60
7218;DHT22;3650;53.580;10.094;2024-02-26T12:46:26;8.30;99.60
7218;DHT22;3650;53.580;10.094;2024-02-26T12:48:56;8.30;99.70
7218;DHT22;3650;53.580;10.094;2024-02-26T12:51:25;8.20;99.70
7218;DHT22;3650;53.580;10.094;2024-02-26T12:53:53;8.30;99.70
7218;DHT22;3650;53.580;10.094;2024-02-26T12:56:20;8.30;99.50
7218;DHT22;3650;53.580;10.094;2024-02-26T12:58:48;8.20;99.40
7218;DHT22;3650;53.580;10.094;2024-02-26T13:01:18;8.20;99.50
7218;DHT22;3650;53.580;10.094;2024-02-26T13:03:46;8.30;99.50
7218;DHT22;3650;53.580;10.094;2024-02-26T13:06:13;8.30;99.60
7218;DHT22;3650;53.580;10.094;2024-02-26T13:08:41;8.20;99.30
7218;DHT22;3650;53.580;10.094;2024-02-26T13:11:08;8.20;98.90
7218;DHT22;3650;53.580;10.094;2024-02-26T13:13:35;8.20;98.40
7218;DHT22;3650;53.580;10.094;2024-02-26T13:16:03;8.20;98.50
7218;DHT22;3650;53.580;10.094;2024-02-26T13:18:32;8.30;98.90
7218;DHT22;3650;53.580;10.094;2024-02-26T13:21:09;8.30;98.50
7218;DHT22;3650;53.580;10.094;2024-02-26T13:23:37;8.30;98.70
7218;DHT22;3650;53.580;10.094;2024-02-26T13:26:05;8.30;98.90
7218;DHT22;3650;53.580;10.094;2024-02-26T13:28:34;8.30;98.90
7218;DHT22;3650;53.580;10.094;2024-02-26T13:31:01;8.30;99.10
7218;DHT22;3650;53.580;10.094;2024-02-26T13:33:30;8.40;99.10
7218;DHT22;3650;53.580;10.094;2024-02-26T13:35:58;8.40;99.10
7218;DHT22;3650;53.580;10.094;2024-02-26T13:38:25;8.40;99.10
7218;DHT22;3650;53.580;10.094;2024-02-26T13:40:53;8.50;99.10
7218;DHT22;3650;53.580;10.094;2024-02-26T13:43:21;8.50;98.50
7218;DHT22;3650;53.580;10.094;2024-02-26T13:45:48;8.50;98.20
7218;DHT22;3650;53.580;10.094;2024-02-26T13:48:15;8.50;98.30
7218;DHT22;3650;53.580;10.094;2024-02-26T13:50:42;8.50;98.40
7218;DHT22;3650;53.580;10.094;2024-02-26T13:53:11;8.50;98.10
7218;DHT22;3650;53.580;10.094;2024-02-26T13:55:40;8.60;98.00
7218;DHT22;3650;53.580;10.094;2024-02-26T13:58:08;8.50;97.30
7218;DHT22;3650;53.580;10.094;2024-02-26T14:00:39;8.60;97.30
7218;DHT22;3650;53.580;10.094;2024-02-26T14:03:07;8.60;97.00
7218;DHT22;3650;53.580;10.094;2024-02-26T14:05:33;8.60;97.10
7218;DHT22;3650;53.580;10.094;2024-02-26T14:08:00;8.60;97.10
7218;DHT22;3650;53.580;10.094;2024-02-26T14:10:27;8.60;97.30
7218;DHT22;3650;53.580;10.094;2024-02-26T14:12:54;8.60;97.10
7218;DHT22;3650;53.580;10.094;2024-02-26T14:15:21;8.60;97.20
7218;DHT22;3650;53.580;10.094;2024-02-26T14:17:51;8.60;97.20
7218;DHT22;3650;53.580;10.094;2024-02-26T14:20:21;8.60;97.20
7218;DHT22;3650;53.580;10.094;2024-02-26T14:22:48;8.60;96.70
7218;DHT22;3650;53.580;10.094;2024-02-26T14:25:16;8.60;96.80
7218;DHT22;3650;53.580;10.094;2024-02-26T14:27:43;8.60;97.00
7218;DHT22;3650;53.580;10.094;2024-02-26T14:30:10;8.60;97.20
7218;DHT22;3650;53.580;10.094;2024-02-26T14:32:37;8.60;97.10
7218;DHT22;3650;53.580;10.094;2024-02-26T14:35:07;8.60;97.00
7218;DHT22;3650;53.580;10.094;2024-02-26T14:37:34;8.60;97.10
7218;DHT22;3650;53.580;10.094;2024-02-26T14:40:01;8.60;97.60
7218;DHT22;3650;53.580;10.094;2024-02-26T14:42:29;8.60;96.90
7218;DHT22;3650;53.580;10.094;2024-02-26T14:44:56;8.60;96.50
7218;DHT22;3650;53.580;10.094;2024-02-26T14:47:22;8.60;96.70
7218;DHT22;3650;53.580;10.094;2024-02-26T14:49:49;8.60;96.90
7218;DHT22;3650;53.580;10.094;2024-02-26T14:52:18;8.60;97.00
7218;DHT22;3650;53.580;10.094;2024-02-26T14:54:45;8.60;97.00
7218;DHT22;3650;53.580;10.094;2024-02-26T14:57:12;8.60;96.70
7218;DHT22;3650;53.580;10.094;2024-02-26T14:59:39;8.60;96.20
7218;DHT22;3650;53.580;10.094;2024-02-26T15:02:06;8.50;96.00
7218;DHT22;3650;53.580;10.094;2024-02-26T15:04:35;8.50;96.00
7218;DHT22;3650;53.580;10.094;2024-02-26T15:07:02;8.50;96.20
7218;DHT22;3650;53.580;10.094;2024-02-26T15:09:31;8.50;96.30
7218;DHT22;3650;53.580;10.094;2024-02-26T15:11:57;8.50;96.40
7218;DHT22;3650;53.580;10.094;2024-02-26T15:14:24;8.50;96.50
7218;DHT22;3650;53.580;10.094;2024-02-26T15:16:52;8.50;96.60
7218;DHT22;3650;53.580;10.094;2024-02-26T15:19:19;8.50;96.50
7218;DHT22;3650;53.580;10.094;2024-02-26T15:21:46;8.40;96.30
7218;DHT22;3650;53.580;10.094;2024-02-26T15:24:14;8.40;96.40
7218;DHT22;3650;53.580;10.094;2024-02-26T15:26:44;8.40;96.50
7218;DHT22;3650;53.580;10.094;2024-02-26T15:29:11;8.40;96.40
7218;DHT22;3650;53.580;10.094;2024-02-26T15:31:38;8.30;96.30
7218;DHT22;3650;53.580;10.094;2024-02-26T15:34:04;8.40;96.30
7218;DHT22;3650;53.580;10.094;2024-02-26T15:36:31;8.30;96.40
7218;DHT22;3650;53.580;10.094;2024-02-26T15:38:58;8.30;96.10
7218;DHT22;3650;53.580;10.094;2024-02-26T15:41:25;8.30;96.10
7218;DHT22;3650;53.580;10.094;2024-02-26T15:43:53;8.30;96.20
7218;DHT22;3650;53.580;10.094;2024-02-26T15:46:20;8.30;96.20
7218;DHT22;3650;53.580;10.094;2024-02-26T15:48:47;8.30;96.10
7218;DHT22;3650;53.580;10.094;2024-02-26T15:51:21;8.30;96.10
7218;DHT22;3650;53.580;10.094;2024-02-26T15:53:49;8.30;96.00
7218;DHT22;3650;53.580;10.094;2024-02-26T15:56:17;8.30;96.00
7218;DHT22;3650;53.580;10.094;2024-02-26T15:58:47;8.20;96.00
7218;DHT22;3650;53.580;10.094;2024-02-26T16:01:15;8.20;96.10
7218;DHT22;3650;53.580;10.094;2024-02-26T16:03:41;8.20;96.20